createdAt,value
2019-05-01T00:00:01.478Z,52.42
2019-05-01T00:01:01.537Z,53.85
2019-05-01T00:02:54.679Z,54.36
2019-05-01T00:03:54.686Z,54.64
2019-05-01T00:05:47.870Z,55.29
2019-05-01T00:06:47.854Z,53.47
2019-05-01T00:08:41.026Z,53.97
2019-05-01T00:09:41.041Z,53.97
2019-05-01T00:11:34.268Z,57.90
2019-05-01T00:12:34.272Z,60.19
2019-05-01T00:14:27.439Z,60.64
2019-05-01T00:15:27.486Z,61.02
2019-05-01T00:17:20.614Z,60.26
2019-05-01T00:18:20.634Z,57.77
2019-05-01T00:20:14.136Z,54.80
2019-05-01T00:21:13.850Z,55.86
2019-05-01T00:23:07.007Z,55.67
2019-05-01T00:24:07.011Z,55.47
2019-05-01T00:26:00.184Z,55.12
2019-05-01T00:27:00.189Z,54.64
2019-05-01T00:28:53.375Z,53.88
2019-05-01T00:29:53.368Z,55.31
2019-05-01T00:31:46.605Z,58.76
2019-05-01T00:32:46.626Z,59.69
2019-05-01T00:34:39.791Z,60.64
2019-05-01T00:35:39.796Z,57.32
2019-05-01T00:37:32.996Z,56.94
2019-05-01T00:38:33.080Z,56.17
2019-05-01T00:40:26.193Z,57.80
2019-05-01T00:41:26.204Z,58.66
2019-05-01T00:43:19.414Z,60.19
2019-05-01T00:44:19.433Z,62.77
2019-05-01T00:46:12.606Z,58.86
2019-05-01T00:47:12.678Z,60.10
2019-05-01T00:49:05.831Z,59.14
2019-05-01T00:50:05.855Z,58.76
2019-05-01T00:51:59.041Z,58.76
2019-05-01T00:52:59.051Z,59.05
2019-05-01T00:54:52.246Z,58.86
2019-05-01T00:55:52.263Z,59.43
2019-05-01T00:57:45.394Z,59.52
2019-05-01T00:58:45.425Z,60.00
2019-05-01T01:00:43.239Z,61.25
2019-05-01T01:01:38.581Z,60.38
2019-05-01T01:03:31.759Z,61.15
2019-05-01T01:04:31.785Z,61.44
2019-05-01T01:06:25.002Z,60.58
2019-05-01T01:07:25.013Z,60.38
2019-05-01T01:09:18.173Z,60.58
2019-05-01T01:10:18.195Z,60.58
2019-05-01T01:12:11.425Z,60.58
2019-05-01T01:13:11.425Z,61.15
2019-05-01T01:15:04.630Z,60.48
2019-05-01T01:16:04.641Z,61.25
2019-05-01T01:17:57.821Z,61.72
2019-05-01T01:18:57.855Z,60.96
2019-05-01T01:20:51.058Z,61.34
2019-05-01T01:21:51.059Z,62.30
2019-05-01T01:23:44.242Z,62.11
2019-05-01T01:24:44.247Z,62.20
2019-05-01T01:26:37.431Z,62.59
2019-05-01T01:27:37.429Z,62.27
2019-05-01T01:29:30.640Z,63.26
2019-05-01T01:30:30.645Z,66.51
2019-05-01T01:32:23.853Z,64.79
2019-05-01T01:33:23.857Z,66.13
2019-05-01T01:35:17.053Z,66.41
2019-05-01T01:36:17.058Z,66.32
2019-05-01T01:38:10.224Z,67.27
2019-05-01T01:39:10.239Z,68.33
2019-05-01T01:41:03.478Z,68.90
2019-05-01T01:42:03.463Z,67.56
2019-05-01T01:43:56.617Z,67.37
2019-05-01T01:44:56.641Z,67.47
2019-05-01T01:46:49.824Z,67.94
2019-05-01T01:47:49.804Z,67.85
2019-05-01T01:49:42.956Z,67.27
2019-05-01T01:50:43.002Z,68.04
2019-05-01T01:52:36.146Z,68.23
2019-05-01T01:53:36.161Z,70.24
2019-05-01T01:55:29.319Z,71.48
2019-05-01T01:56:29.347Z,70.62
2019-05-01T01:58:22.542Z,71.20
2019-05-01T01:59:22.552Z,70.81
2019-05-01T02:01:15.728Z,72.25
2019-05-01T02:02:15.734Z,73.11
2019-05-01T02:04:08.920Z,73.21
2019-05-01T02:05:08.930Z,72.83
2019-05-01T02:07:02.126Z,72.44
2019-05-01T02:08:02.136Z,72.34
2019-05-01T02:09:55.290Z,72.63
2019-05-01T02:10:55.300Z,72.44
2019-05-01T02:12:48.460Z,73.21
2019-05-01T02:13:48.468Z,73.59
2019-05-01T02:15:41.646Z,73.17
2019-05-01T02:16:41.652Z,73.21
2019-05-01T02:18:34.870Z,73.30
2019-05-01T02:19:34.880Z,73.21
2019-05-01T02:21:28.170Z,73.84
2019-05-01T02:22:28.186Z,73.59
2019-05-01T02:24:21.334Z,73.69
2019-05-01T02:25:21.346Z,74.93
2019-05-01T02:27:14.566Z,76.04
2019-05-01T02:28:14.592Z,75.37
2019-05-01T02:30:07.721Z,74.32
2019-05-01T02:31:07.734Z,74.61
2019-05-01T02:33:00.893Z,74.41
2019-05-01T02:34:00.896Z,75.27
2019-05-01T02:35:54.051Z,76.23
2019-05-01T02:36:54.077Z,76.14
2019-05-01T02:38:47.334Z,76.42
2019-05-01T02:39:47.309Z,76.33
2019-05-01T02:41:41.742Z,75.56
2019-05-01T02:42:40.517Z,74.61
2019-05-01T02:44:33.725Z,75.27
2019-05-01T02:45:33.738Z,74.99
2019-05-01T02:47:26.885Z,76.81
2019-05-01T02:48:26.893Z,75.85
2019-05-01T02:50:20.095Z,74.99
2019-05-01T02:51:20.125Z,75.09
2019-05-01T02:53:13.303Z,75.85
2019-05-01T02:54:13.305Z,75.18
2019-05-01T02:56:06.451Z,74.61
2019-05-01T02:57:06.485Z,75.18
2019-05-01T02:58:59.643Z,75.76
2019-05-01T02:59:59.660Z,76.33
2019-05-01T03:01:52.913Z,75.85
2019-05-01T03:02:52.899Z,76.14
2019-05-01T03:04:46.036Z,76.23
2019-05-01T03:05:46.112Z,76.42
2019-05-01T03:07:39.213Z,75.37
2019-05-01T03:08:39.222Z,76.04
2019-05-01T03:10:32.375Z,76.42
2019-05-01T03:11:32.390Z,76.33
2019-05-01T03:13:25.594Z,77.19
2019-05-01T03:14:25.611Z,77.19
2019-05-01T03:16:18.784Z,77.67
2019-05-01T03:17:18.797Z,77.48
2019-05-01T03:19:11.976Z,77.72
2019-05-01T03:20:11.966Z,77.67
2019-05-01T03:22:05.105Z,78.11
2019-05-01T03:23:05.132Z,78.34
2019-05-01T03:24:58.290Z,78.24
2019-05-01T03:25:58.297Z,78.43
2019-05-01T03:27:51.525Z,79.39
2019-05-01T03:28:51.539Z,79.58
2019-05-01T03:30:44.709Z,79.58
2019-05-01T03:31:44.725Z,79.44
2019-05-01T03:33:37.875Z,78.81
2019-05-01T03:34:37.969Z,78.63
2019-05-01T03:36:31.093Z,79.49
2019-05-01T03:37:31.102Z,79.35
2019-05-01T03:39:24.279Z,80.21
2019-05-01T03:40:24.282Z,80.02
2019-05-01T03:42:17.455Z,79.49
2019-05-01T03:43:17.458Z,79.25
2019-05-01T03:45:10.645Z,81.07
2019-05-01T03:46:10.663Z,81.55
2019-05-01T03:48:19.257Z,81.36
2019-05-01T03:49:19.243Z,81.65
2019-05-01T03:51:12.438Z,81.16
2019-05-01T03:52:12.467Z,80.98
2019-05-01T03:54:05.619Z,81.07
2019-05-01T03:55:05.633Z,81.16
2019-05-01T03:56:58.789Z,81.26
2019-05-01T03:57:58.829Z,80.69
2019-05-01T03:59:51.980Z,80.88
2019-05-01T04:00:51.987Z,81.26
2019-05-01T04:02:45.160Z,80.88
2019-05-01T04:03:45.164Z,81.55
2019-05-01T04:05:38.337Z,80.98
2019-05-01T04:06:38.351Z,80.88
2019-05-01T04:08:31.569Z,80.98
2019-05-01T04:09:31.535Z,81.11
2019-05-01T04:11:24.676Z,80.79
2019-05-01T04:12:24.699Z,81.07
2019-05-01T04:14:17.894Z,81.55
2019-05-01T04:15:17.889Z,81.65
2019-05-01T04:17:11.051Z,82.89
2019-05-01T04:18:11.069Z,83.37
2019-05-01T04:20:04.239Z,82.70
2019-05-01T04:21:04.245Z,83.08
2019-05-01T04:22:57.456Z,82.70
2019-05-01T04:23:57.481Z,82.89
2019-05-01T04:25:50.637Z,82.89
2019-05-01T04:26:50.643Z,83.08
2019-05-01T04:28:43.803Z,82.98
2019-05-01T04:29:43.816Z,83.08
2019-05-01T04:31:36.941Z,84.28
2019-05-01T04:32:51.164Z,85.57
2019-05-01T04:34:30.168Z,85.38
2019-05-01T04:35:30.158Z,85.62
2019-05-01T04:37:35.032Z,84.85
2019-05-01T04:38:35.041Z,85.71
2019-05-01T04:40:28.221Z,85.62
2019-05-01T04:41:28.227Z,84.66
2019-05-01T04:43:21.379Z,84.47
2019-05-01T04:44:21.387Z,84.66
2019-05-01T04:46:14.596Z,85.38
2019-05-01T04:47:14.591Z,85.09
2019-05-01T04:49:07.754Z,84.89
2019-05-01T04:50:07.829Z,84.32
2019-05-01T04:52:00.941Z,83.94
2019-05-01T04:53:00.965Z,83.94
2019-05-01T04:54:54.127Z,83.90
2019-05-01T04:55:54.168Z,83.90
2019-05-01T04:57:47.292Z,83.80
2019-05-01T04:58:47.285Z,83.33
2019-05-01T05:00:40.439Z,83.33
2019-05-01T05:01:40.446Z,83.70
2019-05-01T05:03:33.605Z,83.84
2019-05-01T05:04:33.613Z,83.42
2019-05-01T05:06:26.807Z,83.51
2019-05-01T05:07:26.811Z,83.51
2019-05-01T05:09:19.999Z,84.56
2019-05-01T05:10:20.024Z,84.66
2019-05-01T05:12:13.188Z,85.42
2019-05-01T05:13:13.187Z,83.99
2019-05-01T05:15:06.381Z,84.09
2019-05-01T05:16:06.361Z,84.19
2019-05-01T05:17:59.545Z,84.32
2019-05-01T05:18:59.555Z,84.85
2019-05-01T05:20:52.768Z,84.80
2019-05-01T05:21:52.771Z,84.23
2019-05-01T05:23:45.936Z,82.65
2019-05-01T05:24:45.934Z,83.33
2019-05-01T05:26:39.187Z,83.51
2019-05-01T05:27:39.194Z,83.04
2019-05-01T05:29:32.353Z,83.70
2019-05-01T05:30:32.365Z,82.84
2019-05-01T05:32:25.548Z,84.38
2019-05-01T05:33:25.558Z,84.19
2019-05-01T05:35:18.782Z,83.28
2019-05-01T05:36:18.778Z,83.76
2019-05-01T05:38:11.942Z,83.04
2019-05-01T05:39:11.947Z,83.04
2019-05-01T05:41:05.108Z,82.28
2019-05-01T05:42:05.106Z,82.18
2019-05-01T05:43:58.262Z,82.37
2019-05-01T05:44:58.271Z,82.14
2019-05-01T05:46:51.440Z,83.13
2019-05-01T05:47:51.440Z,81.70
2019-05-01T05:50:01.952Z,81.79
2019-05-01T05:51:01.935Z,81.89
2019-05-01T05:52:55.114Z,81.51
2019-05-01T05:53:55.120Z,82.12
2019-05-01T05:55:48.321Z,81.84
2019-05-01T05:56:48.320Z,82.51
2019-05-01T05:58:58.814Z,82.98
2019-05-01T05:59:58.827Z,83.17
2019-05-01T06:01:51.996Z,83.04
2019-05-01T06:02:52.012Z,82.84
2019-05-01T06:04:45.185Z,82.89
2019-05-01T06:05:45.202Z,82.70
2019-05-01T06:07:38.560Z,82.41
2019-05-01T06:08:38.550Z,82.94
2019-05-01T06:10:31.737Z,83.42
2019-05-01T06:11:34.027Z,83.70
2019-05-01T06:13:24.916Z,83.51
2019-05-01T06:14:27.021Z,83.33
2019-05-01T06:16:18.101Z,83.17
2019-05-01T06:17:18.116Z,83.42
2019-05-01T06:19:14.532Z,82.98
2019-05-01T06:20:11.317Z,83.17
2019-05-01T06:22:04.893Z,83.17
2019-05-01T06:23:04.512Z,83.84
2019-05-01T06:24:57.731Z,83.37
2019-05-01T06:26:00.229Z,82.98
2019-05-01T06:27:50.939Z,82.22
2019-05-01T06:28:50.940Z,80.06
2019-05-01T06:30:47.051Z,80.69
2019-05-01T06:31:44.099Z,78.53
2019-05-01T06:33:55.047Z,80.59
2019-05-01T06:34:58.438Z,80.30
2019-05-01T06:36:49.735Z,81.07
2019-05-01T06:37:47.904Z,81.74
2019-05-01T06:39:42.870Z,80.98
2019-05-01T06:40:41.107Z,80.79
2019-05-01T06:42:34.244Z,80.59
2019-05-01T06:43:34.262Z,81.65
2019-05-01T06:45:27.401Z,81.84
2019-05-01T06:46:29.088Z,81.55
2019-05-01T06:48:20.603Z,81.88
2019-05-01T06:49:24.297Z,81.68
2019-05-01T06:51:17.690Z,81.49
2019-05-01T06:52:13.785Z,80.82
2019-05-01T06:54:11.369Z,80.35
2019-05-01T06:55:06.973Z,80.44
2019-05-01T06:57:00.124Z,81.26
2019-05-01T06:58:00.118Z,81.07
2019-05-01T06:59:53.288Z,80.69
2019-05-01T07:00:53.299Z,81.13
2019-05-01T07:02:46.555Z,81.70
2019-05-01T07:04:02.882Z,81.36
2019-05-01T07:05:39.699Z,81.79
2019-05-01T07:06:39.721Z,81.22
2019-05-01T07:08:34.334Z,81.84
2019-05-01T07:09:33.259Z,80.88
2019-05-01T07:11:26.107Z,81.36
2019-05-01T07:12:28.256Z,80.98
2019-05-01T07:14:19.299Z,80.69
2019-05-01T07:15:21.860Z,81.36
2019-05-01T07:17:13.606Z,82.18
2019-05-01T07:18:12.520Z,83.37
2019-05-01T07:20:05.676Z,83.51
2019-05-01T07:21:05.689Z,83.70
2019-05-01T07:22:58.878Z,85.62
2019-05-01T07:23:58.878Z,85.42
2019-05-01T07:25:52.135Z,85.62
2019-05-01T07:26:52.159Z,85.62
2019-05-01T07:28:45.336Z,85.52
2019-05-01T07:29:46.677Z,84.66
2019-05-01T07:32:41.075Z,84.19
2019-05-01T07:34:31.660Z,85.52
2019-05-01T07:35:32.904Z,85.42
2019-05-01T07:37:25.888Z,84.28
2019-05-01T07:38:24.854Z,83.42
2019-05-01T07:40:20.721Z,83.33
2019-05-01T07:41:18.010Z,83.51
2019-05-01T07:43:11.166Z,83.23
2019-05-01T07:44:11.167Z,82.98
2019-05-01T07:46:04.300Z,81.65
2019-05-01T07:47:04.332Z,81.74
2019-05-01T07:49:17.214Z,82.12
2019-05-01T07:50:12.892Z,81.93
2019-05-01T07:52:06.058Z,82.75
2019-05-01T07:53:06.060Z,83.08
2019-05-01T07:54:59.314Z,82.70
2019-05-01T07:55:59.322Z,82.94
2019-05-01T07:57:52.532Z,82.22
2019-05-01T07:58:53.416Z,82.31
2019-05-01T08:01:49.869Z,82.37
2019-05-01T08:03:42.619Z,80.98
2019-05-01T08:04:38.902Z,81.16
2019-05-01T08:06:32.068Z,81.26
2019-05-01T08:07:33.489Z,80.79
2019-05-01T08:09:25.224Z,80.30
2019-05-01T08:10:28.700Z,80.63
2019-05-01T08:12:18.979Z,81.11
2019-05-01T08:15:11.635Z,78.47
2019-05-01T08:16:11.671Z,78.38
2019-05-01T08:19:05.925Z,78.53
2019-05-01T08:21:12.399Z,78.34
2019-05-01T08:22:12.408Z,78.66
2019-05-01T08:24:07.280Z,77.80
2019-05-01T08:25:05.555Z,78.05
2019-05-01T08:26:58.781Z,78.72
2019-05-01T08:27:58.777Z,79.54
2019-05-01T08:29:52.799Z,80.02
2019-05-01T08:30:52.953Z,79.93
2019-05-01T08:32:45.553Z,80.30
2019-05-01T08:33:49.744Z,80.11
2019-05-01T08:35:38.721Z,79.77
2019-05-01T08:36:42.655Z,78.81
2019-05-01T08:38:34.211Z,78.24
2019-05-01T08:39:31.931Z,77.95
2019-05-01T08:41:26.936Z,77.42
2019-05-01T08:42:25.142Z,77.51
2019-05-01T08:44:18.309Z,76.40
2019-05-01T08:45:18.307Z,75.73
2019-05-01T08:47:11.491Z,76.27
2019-05-01T08:48:11.519Z,76.27
2019-05-01T08:50:04.716Z,76.02
2019-05-01T08:51:04.695Z,75.79
2019-05-01T08:52:57.925Z,76.56
2019-05-01T08:53:59.491Z,76.81
2019-05-01T08:55:51.046Z,77.23
2019-05-01T08:56:53.127Z,76.46
2019-05-01T08:58:49.049Z,76.18
2019-05-01T08:59:44.249Z,76.40
2019-05-01T09:01:37.443Z,74.40
2019-05-01T09:02:41.773Z,74.40
2019-05-01T09:04:32.443Z,74.68
2019-05-01T09:05:33.928Z,73.82
2019-05-01T09:07:24.207Z,74.01
2019-05-01T09:08:27.202Z,73.82
2019-05-01T09:10:21.498Z,73.82
2019-05-01T09:11:17.029Z,74.11
2019-05-01T09:13:10.222Z,73.19
2019-05-01T09:14:10.232Z,73.26
2019-05-01T09:16:03.402Z,71.47
2019-05-01T09:18:56.640Z,68.27
2019-05-01T09:19:56.682Z,69.26
2019-05-01T09:22:07.183Z,68.63
2019-05-01T09:23:09.500Z,67.47
2019-05-01T09:25:01.870Z,68.24
2019-05-01T09:26:00.376Z,69.23
2019-05-01T09:27:53.536Z,69.36
2019-05-01T09:28:53.533Z,67.54
2019-05-01T09:30:47.551Z,68.79
2019-05-01T09:31:47.575Z,67.25
2019-05-01T09:33:40.740Z,68.05
2019-05-01T09:34:40.747Z,66.67
2019-05-01T09:36:33.914Z,66.61
2019-05-01T09:37:33.935Z,68.40
2019-05-01T09:39:27.103Z,68.27
2019-05-01T09:42:34.698Z,66.26
2019-05-01T09:43:35.684Z,65.52
2019-05-01T09:45:27.943Z,66.74
2019-05-01T09:46:27.948Z,66.49
2019-05-01T09:48:21.108Z,63.70
2019-05-01T09:49:21.126Z,63.60
2019-05-01T09:51:14.373Z,62.81
2019-05-01T09:52:14.384Z,64.12
2019-05-01T09:54:09.830Z,65.40
2019-05-01T09:55:07.547Z,64.92
2019-05-01T09:57:00.698Z,64.37
2019-05-01T09:58:02.806Z,65.23
2019-05-01T09:59:53.898Z,62.35
2019-05-01T10:00:54.021Z,60.72
2019-05-01T10:02:47.122Z,57.09
2019-05-01T10:03:49.433Z,56.58
2019-05-01T10:05:42.843Z,56.05
2019-05-01T10:06:40.360Z,54.90
2019-05-01T10:08:34.846Z,55.16
2019-05-01T10:09:33.559Z,55.93
2019-05-01T10:11:26.743Z,56.65
2019-05-01T10:12:26.940Z,56.15
2019-05-01T10:14:19.936Z,52.13
2019-05-01T10:15:19.933Z,54.65
2019-05-01T10:17:13.558Z,55.16
2019-05-01T10:18:13.132Z,54.90
2019-05-01T10:20:06.357Z,52.36
2019-05-01T10:21:06.365Z,47.81
2019-05-01T10:22:59.553Z,47.26
2019-05-01T10:23:59.570Z,48.11
2019-05-01T10:25:52.769Z,48.79
2019-05-01T10:26:55.256Z,46.53
2019-05-01T10:28:50.140Z,40.40
2019-05-01T10:29:45.984Z,44.43
2019-05-01T10:31:42.951Z,48.49
2019-05-01T10:32:39.201Z,48.59
2019-05-01T10:34:32.374Z,47.87
2019-05-01T10:35:42.579Z,48.23
2019-05-01T10:37:28.362Z,48.61
2019-05-01T10:38:25.562Z,48.30
2019-05-01T10:40:18.735Z,42.71
2019-05-01T10:41:18.737Z,39.84
2019-05-01T10:43:11.933Z,39.08
2019-05-01T10:44:11.987Z,41.94
2019-05-01T10:46:05.148Z,45.76
2019-05-01T10:47:05.166Z,46.92
2019-05-01T10:48:58.361Z,47.96
2019-05-01T10:49:58.826Z,46.68
2019-05-01T10:51:52.195Z,46.67
2019-05-01T10:52:51.650Z,44.12
2019-05-01T10:54:46.509Z,46.88
2019-05-01T10:55:44.843Z,45.79
2019-05-01T10:57:40.444Z,48.03
2019-05-01T10:58:38.120Z,49.00
2019-05-01T11:00:31.339Z,45.01
2019-05-01T11:01:31.329Z,47.00
2019-05-01T11:03:25.028Z,49.84
2019-05-01T11:04:24.524Z,50.71
2019-05-01T11:06:17.712Z,49.12
2019-05-01T11:07:17.741Z,46.85
2019-05-01T11:09:10.907Z,48.08
2019-05-01T11:10:10.920Z,47.69
2019-05-01T11:12:04.134Z,41.01
2019-05-01T11:13:04.116Z,37.37
2019-05-01T11:15:15.692Z,40.21
2019-05-01T11:16:15.757Z,40.77
2019-05-01T11:18:08.961Z,37.51
2019-05-01T11:19:08.969Z,39.24
2019-05-01T11:21:02.282Z,39.18
2019-05-01T11:22:02.199Z,42.14
2019-05-01T11:23:55.382Z,44.09
2019-05-01T11:24:55.380Z,44.46
2019-05-01T11:26:48.647Z,46.59
2019-05-01T11:27:48.656Z,48.95
2019-05-01T11:29:41.910Z,51.21
2019-05-01T11:30:41.860Z,51.98
2019-05-01T11:32:35.204Z,51.89
2019-05-01T11:33:35.187Z,51.84
2019-05-01T11:35:28.438Z,49.05
2019-05-01T11:36:28.441Z,46.71
2019-05-01T11:38:21.627Z,50.37
2019-05-01T11:39:21.649Z,52.01
2019-05-01T11:41:14.863Z,53.05
2019-05-01T11:42:14.862Z,53.59
2019-05-01T11:44:08.059Z,54.36
2019-05-01T11:45:08.073Z,54.65
2019-05-01T11:47:15.613Z,54.91
2019-05-01T11:48:15.614Z,55.18
2019-05-01T11:50:08.776Z,54.72
2019-05-01T11:51:08.789Z,55.71
2019-05-01T11:53:02.021Z,55.33
2019-05-01T11:54:02.300Z,55.26
2019-05-01T11:55:55.242Z,54.13
2019-05-01T11:56:55.245Z,52.75
2019-05-01T11:59:02.801Z,54.91
2019-05-01T12:00:02.802Z,55.78
2019-05-01T12:02:10.301Z,54.69
2019-05-01T12:03:10.301Z,55.05
2019-05-01T12:05:03.503Z,55.53
2019-05-01T12:06:03.511Z,55.73
2019-05-01T12:07:56.727Z,56.11
2019-05-01T12:08:56.721Z,56.01
2019-05-01T12:10:49.921Z,56.04
2019-05-01T12:11:49.937Z,56.11
2019-05-01T12:14:00.450Z,57.07
2019-05-01T12:15:00.461Z,57.14
2019-05-01T12:16:53.615Z,57.62
2019-05-01T12:17:53.629Z,58.29
2019-05-01T12:20:04.183Z,57.65
2019-05-01T12:21:04.179Z,57.75
2019-05-01T12:22:57.435Z,57.84
2019-05-01T12:23:57.460Z,58.10
2019-05-01T12:25:50.711Z,58.87
2019-05-01T12:26:50.721Z,58.96
2019-05-01T12:28:43.902Z,59.09
2019-05-01T12:29:43.905Z,58.32
2019-05-01T12:31:37.126Z,59.09
2019-05-01T12:32:37.192Z,59.28
2019-05-01T12:34:30.304Z,58.99
2019-05-01T12:35:30.313Z,59.09
2019-05-01T12:37:23.547Z,59.28
2019-05-01T12:38:23.553Z,59.95
2019-05-01T12:40:16.858Z,60.14
2019-05-01T12:41:16.826Z,60.05
2019-05-01T12:43:12.300Z,59.99
2019-05-01T12:44:09.994Z,58.80
2019-05-01T12:46:03.336Z,58.73
2019-05-01T12:47:03.219Z,58.83
2019-05-01T12:48:56.486Z,59.12
2019-05-01T12:49:56.405Z,58.73
2019-05-01T12:51:49.675Z,58.83
2019-05-01T12:52:49.687Z,58.92
2019-05-01T12:54:42.942Z,58.92
2019-05-01T12:55:42.950Z,59.12
2019-05-01T12:57:36.194Z,58.35
2019-05-01T12:58:36.212Z,58.06
2019-05-01T13:00:29.382Z,58.89
2019-05-01T13:01:29.392Z,58.89
2019-05-01T13:03:22.568Z,58.51
2019-05-01T13:04:22.592Z,59.19
2019-05-01T13:06:15.816Z,59.34
2019-05-01T13:07:15.778Z,59.95
2019-05-01T13:09:09.058Z,59.92
2019-05-01T13:10:09.081Z,59.54
2019-05-01T13:12:02.311Z,59.83
2019-05-01T13:13:02.277Z,59.83
2019-05-01T13:14:55.452Z,60.11
2019-05-01T13:15:55.466Z,59.64
2019-05-01T13:17:48.650Z,60.11
2019-05-01T13:18:48.672Z,60.60
2019-05-01T13:20:41.849Z,60.21
2019-05-01T13:21:41.847Z,60.05
2019-05-01T13:23:49.379Z,60.05
2019-05-01T13:24:49.358Z,60.14
2019-05-01T13:26:42.539Z,59.95
2019-05-01T13:27:42.552Z,60.14
2019-05-01T13:29:35.756Z,60.24
2019-05-01T13:30:35.764Z,60.63
2019-05-01T13:32:29.251Z,60.40
2019-05-01T13:33:29.023Z,60.14
2019-05-01T13:35:22.183Z,60.43
2019-05-01T13:36:22.196Z,60.34
2019-05-01T13:38:15.350Z,60.82
2019-05-01T13:39:15.363Z,60.63
2019-05-01T13:41:08.553Z,59.86
2019-05-01T13:42:09.061Z,59.31
2019-05-01T13:44:01.771Z,59.89
2019-05-01T13:45:01.771Z,60.08
2019-05-01T13:46:54.952Z,59.99
2019-05-01T13:47:54.955Z,59.28
2019-05-01T13:49:48.139Z,59.66
2019-05-01T13:50:48.159Z,60.27
2019-05-01T13:52:41.304Z,59.19
2019-05-01T13:53:41.313Z,58.64
2019-05-01T13:55:34.534Z,59.28
2019-05-01T13:56:34.533Z,58.89
2019-05-01T13:58:27.728Z,59.95
2019-05-01T13:59:27.728Z,59.86
2019-05-01T14:01:20.923Z,59.95
2019-05-01T14:02:20.924Z,59.47
2019-05-01T14:04:14.087Z,60.05
2019-05-01T14:05:14.101Z,60.34
2019-05-01T14:07:16.385Z,59.47
2019-05-01T14:08:07.320Z,60.05
2019-05-01T14:10:00.515Z,59.47
2019-05-01T14:11:00.522Z,60.24
2019-05-01T14:12:53.745Z,59.95
2019-05-01T14:13:53.739Z,59.86
2019-05-01T14:15:46.931Z,59.76
2019-05-01T14:16:46.965Z,59.09
2019-05-01T14:18:40.156Z,59.47
2019-05-01T14:19:40.165Z,59.76
2019-05-01T14:21:33.371Z,59.09
2019-05-01T14:22:33.363Z,58.51
2019-05-01T14:24:26.580Z,59.16
2019-05-01T14:25:26.585Z,59.25
2019-05-01T14:27:19.781Z,58.58
2019-05-01T14:28:19.823Z,58.96
2019-05-01T14:30:13.007Z,59.25
2019-05-01T14:31:13.019Z,58.77
2019-05-01T14:33:06.241Z,58.77
2019-05-01T14:34:06.207Z,60.02
2019-05-01T14:35:59.420Z,60.02
2019-05-01T14:36:59.422Z,59.92
2019-05-01T14:38:52.595Z,59.25
2019-05-01T14:39:52.611Z,59.34
2019-05-01T14:42:06.837Z,60.11
2019-05-01T14:43:38.993Z,59.06
2019-05-01T14:44:39.007Z,59.92
2019-05-01T14:46:32.187Z,58.67
2019-05-01T14:47:32.191Z,58.77
2019-05-01T14:49:25.382Z,58.29
2019-05-01T14:50:25.388Z,58.87
2019-05-01T14:52:18.590Z,58.00
2019-05-01T14:53:18.587Z,58.00
2019-05-01T14:55:11.743Z,58.87
2019-05-01T14:56:11.769Z,58.67
2019-05-01T14:58:04.958Z,58.87
2019-05-01T14:59:04.984Z,58.87
2019-05-01T15:00:58.179Z,57.62
2019-05-01T15:01:58.255Z,57.62
2019-05-01T15:03:51.392Z,58.03
2019-05-01T15:04:51.390Z,58.10
2019-05-01T15:06:44.602Z,58.87
2019-05-01T15:07:44.604Z,59.16
2019-05-01T15:09:37.774Z,60.60
2019-05-01T15:10:37.777Z,58.96
2019-05-01T15:12:30.993Z,59.73
2019-05-01T15:13:32.730Z,59.16
2019-05-01T15:15:24.213Z,59.12
2019-05-01T15:16:24.200Z,60.02
2019-05-01T15:18:17.461Z,60.69
2019-05-01T15:19:17.472Z,60.11
2019-05-01T15:21:10.738Z,59.73
2019-05-01T15:22:10.662Z,59.92
2019-05-01T15:24:03.876Z,58.89
2019-05-01T15:25:04.452Z,58.03
2019-05-01T15:26:57.029Z,56.71
2019-05-01T15:27:57.035Z,57.17
2019-05-01T15:29:50.236Z,57.93
2019-05-01T15:30:50.238Z,58.39
2019-05-01T15:32:43.527Z,59.44
2019-05-01T15:33:43.472Z,59.92
2019-05-01T15:35:36.660Z,59.16
2019-05-01T15:36:36.689Z,59.44
2019-05-01T15:38:29.856Z,59.25
2019-05-01T15:39:29.848Z,58.77
2019-05-01T15:41:23.021Z,57.81
2019-05-01T15:42:23.043Z,58.39
2019-05-01T15:44:16.276Z,57.81
2019-05-01T15:45:16.298Z,58.29
2019-05-01T15:47:23.904Z,58.87
2019-05-01T15:48:23.840Z,58.39
2019-05-01T15:50:17.058Z,59.44
2019-05-01T15:51:17.063Z,59.16
2019-05-01T15:53:10.223Z,58.77
2019-05-01T15:54:10.228Z,58.10
2019-05-01T15:56:21.809Z,58.48
2019-05-01T15:57:21.783Z,59.06
2019-05-01T15:59:14.977Z,58.58
2019-05-01T16:00:14.981Z,57.52
2019-05-01T16:02:08.224Z,57.90
2019-05-01T16:03:08.243Z,58.00
2019-05-01T16:05:37.237Z,57.43
2019-05-01T16:06:37.187Z,57.43
2019-05-01T16:08:30.389Z,56.95
2019-05-01T16:09:30.377Z,57.43
2019-05-01T16:11:23.537Z,59.06
2019-05-01T16:12:23.557Z,58.20
2019-05-01T16:14:16.786Z,58.10
2019-05-01T16:15:16.791Z,57.43
2019-05-01T16:17:09.963Z,57.62
2019-05-01T16:18:09.983Z,57.33
2019-05-01T16:20:03.206Z,56.46
2019-05-01T16:21:03.205Z,55.79
2019-05-01T16:22:56.407Z,56.37
2019-05-01T16:23:56.419Z,55.79
2019-05-01T16:26:03.959Z,55.67
2019-05-01T16:27:03.969Z,55.86
2019-05-01T16:28:57.103Z,55.57
2019-05-01T16:29:57.113Z,55.86
2019-05-01T16:31:50.307Z,55.86
2019-05-01T16:32:50.342Z,55.96
2019-05-01T16:34:43.592Z,55.77
2019-05-01T16:35:43.599Z,56.24
2019-05-01T16:37:36.793Z,55.67
2019-05-01T16:38:36.829Z,56.15
2019-05-01T16:40:30.088Z,56.53
2019-05-01T16:41:30.075Z,56.53
2019-05-01T16:43:23.278Z,55.29
2019-05-01T16:44:23.276Z,55.96
2019-05-01T16:46:34.480Z,55.86
2019-05-01T16:47:33.860Z,55.96
2019-05-01T16:49:30.339Z,55.86
2019-05-01T16:50:27.154Z,55.67
2019-05-01T16:52:20.266Z,53.56
2019-05-01T16:53:20.377Z,53.17
2019-05-01T16:55:32.614Z,52.69
2019-05-01T16:56:33.136Z,52.22
2019-05-01T16:58:25.803Z,52.98
2019-05-01T16:59:26.006Z,54.04
2019-05-01T17:01:18.995Z,53.27
2019-05-01T17:02:19.029Z,53.85
2019-05-01T17:04:12.178Z,55.10
2019-05-01T17:05:12.176Z,54.04
2019-05-01T17:07:05.328Z,55.67
2019-05-01T17:08:05.344Z,54.90
2019-05-01T17:09:58.504Z,54.90
2019-05-01T17:10:58.520Z,54.80
2019-05-01T17:13:10.115Z,55.67
2019-05-01T17:14:10.082Z,55.86
2019-05-01T17:16:03.390Z,56.44
2019-05-01T17:17:03.253Z,56.05
2019-05-01T17:19:14.539Z,55.67
2019-05-01T17:20:14.532Z,55.67
2019-05-01T17:22:09.199Z,54.80
2019-05-01T17:23:07.714Z,54.61
2019-05-01T17:25:00.849Z,56.53
2019-05-01T17:26:00.863Z,55.38
2019-05-01T17:27:54.360Z,54.80
2019-05-01T17:28:54.367Z,55.47
2019-05-01T17:31:20.183Z,54.39
2019-05-01T17:32:20.201Z,54.97
2019-05-01T17:34:13.417Z,54.39
2019-05-01T17:35:13.422Z,54.78
2019-05-01T17:37:06.866Z,55.16
2019-05-01T17:38:06.885Z,56.12
2019-05-01T17:40:14.501Z,54.88
2019-05-01T17:41:14.477Z,55.07
2019-05-01T17:43:08.138Z,54.78
2019-05-01T17:44:07.755Z,54.68
2019-05-01T17:46:00.872Z,56.02
2019-05-01T17:47:00.879Z,56.22
2019-05-01T17:49:10.459Z,55.07
2019-05-01T17:50:09.435Z,54.78
2019-05-01T17:52:20.038Z,54.97
2019-05-01T17:53:20.068Z,55.64
2019-05-01T17:55:30.856Z,55.83
2019-05-01T17:56:30.865Z,55.83
2019-05-01T17:58:24.014Z,56.41
2019-05-01T17:59:24.029Z,56.22
2019-05-01T18:01:17.359Z,56.60
2019-05-01T18:02:17.229Z,56.89
2019-05-01T18:04:10.599Z,57.46
2019-05-01T18:05:10.500Z,57.08
2019-05-01T18:07:03.686Z,58.33
2019-05-01T18:08:03.717Z,57.85
2019-05-01T18:09:56.996Z,58.71
2019-05-01T18:10:56.913Z,58.62
2019-05-01T18:12:50.103Z,59.86
2019-05-01T18:13:50.138Z,59.38
2019-05-01T18:15:43.331Z,59.93
2019-05-01T18:16:43.337Z,60.12
2019-05-01T18:18:36.503Z,60.50
2019-05-01T18:19:36.518Z,60.41
2019-05-01T18:21:30.011Z,60.89
2019-05-01T18:22:32.009Z,60.41
2019-05-01T18:24:23.338Z,60.79
2019-05-01T18:25:22.889Z,61.08
2019-05-01T18:27:19.181Z,61.18
2019-05-01T18:28:16.063Z,61.85
2019-05-01T18:30:09.249Z,61.56
2019-05-01T18:31:09.266Z,61.56
2019-05-01T18:33:02.425Z,61.27
2019-05-01T18:34:04.336Z,62.04
2019-05-01T18:36:12.924Z,62.39
2019-05-01T18:37:12.930Z,62.59
2019-05-01T18:39:16.407Z,62.33
2019-05-01T18:40:06.118Z,62.30
2019-05-01T18:41:59.308Z,62.30
2019-05-01T18:42:59.317Z,63.73
2019-05-01T18:44:52.529Z,62.77
2019-05-01T18:45:52.545Z,62.77
2019-05-01T18:47:45.700Z,62.49
2019-05-01T18:48:45.728Z,62.87
2019-05-01T18:50:38.897Z,63.64
2019-05-01T18:51:40.651Z,62.59